createdAt,value
2018-04-07T00:00:16.431Z,4.62
2018-04-07T00:01:21.050Z,4.59
2018-04-07T00:02:15.909Z,4.61
2018-04-07T00:03:17.913Z,4.65
2018-04-07T00:04:16.426Z,4.57
2018-04-07T00:05:14.613Z,4.55
2018-04-07T00:06:22.419Z,4.57
2018-04-07T00:07:15.997Z,4.61
2018-04-07T00:08:16.926Z,4.59
2018-04-07T00:09:16.912Z,4.61
2018-04-07T00:10:25.362Z,4.55
2018-04-07T00:11:19.408Z,4.58
2018-04-07T00:12:17.909Z,4.51
2018-04-07T00:13:16.247Z,4.54
2018-04-07T00:14:16.476Z,4.40
2018-04-07T00:15:19.430Z,4.37
2018-04-07T00:16:18.447Z,4.36
2018-04-07T00:17:17.053Z,4.54
2018-04-07T00:18:18.929Z,4.46
2018-04-07T00:19:17.412Z,4.40
2018-04-07T00:20:17.674Z,4.37
2018-04-07T00:21:19.423Z,4.28
2018-04-07T00:22:19.921Z,4.34
2018-04-07T00:23:19.969Z,4.44
2018-04-07T00:24:19.882Z,4.47
2018-04-07T00:25:19.471Z,4.33
2018-04-07T00:26:26.452Z,4.21
2018-04-07T00:27:20.410Z,4.21
2018-04-07T00:28:20.905Z,4.16
2018-04-07T00:29:19.153Z,4.22
2018-04-07T00:30:19.234Z,4.14
2018-04-07T00:31:21.414Z,4.19
2018-04-07T00:32:19.610Z,4.14
2018-04-07T00:33:21.878Z,4.22
2018-04-07T00:34:20.912Z,4.22
2018-04-07T00:35:20.874Z,4.15
2018-04-07T00:36:21.908Z,4.22
2018-04-07T00:37:20.382Z,4.06
2018-04-07T00:38:22.450Z,4.18
2018-04-07T00:39:20.812Z,3.98
2018-04-07T00:40:21.032Z,3.97
2018-04-07T00:41:25.285Z,3.92
2018-04-07T00:42:23.442Z,3.98
2018-04-07T00:43:23.439Z,4.00
2018-04-07T00:44:23.424Z,3.98
2018-04-07T00:45:24.968Z,4.03
2018-04-07T00:46:22.866Z,3.89
2018-04-07T00:47:24.430Z,4.00
2018-04-07T00:48:24.371Z,3.96
2018-04-07T00:49:25.411Z,3.94
2018-04-07T00:50:25.442Z,3.80
2018-04-07T00:51:24.918Z,3.89
2018-04-07T00:52:27.962Z,3.85
2018-04-07T00:53:23.310Z,3.82
2018-04-07T00:54:26.955Z,3.78
2018-04-07T00:55:23.678Z,3.80
2018-04-07T00:56:27.452Z,3.72
2018-04-07T00:57:24.006Z,3.70
2018-04-07T00:58:27.910Z,3.75
2018-04-07T00:59:27.910Z,3.70
2018-04-07T01:00:31.422Z,3.70
2018-04-07T01:01:26.413Z,3.75
2018-04-07T01:02:27.196Z,3.67
2018-04-07T01:03:28.927Z,3.67
2018-04-07T01:04:25.179Z,3.72
2018-04-07T01:05:25.264Z,3.80
2018-04-07T01:06:25.480Z,3.85
2018-04-07T01:07:25.709Z,3.70
2018-04-07T01:08:29.425Z,3.75
2018-04-07T01:09:26.063Z,3.70
2018-04-07T01:10:27.922Z,3.65
2018-04-07T01:11:27.465Z,3.62
2018-04-07T01:12:29.413Z,3.76
2018-04-07T01:13:34.410Z,3.57
2018-04-07T01:14:27.855Z,3.60
2018-04-07T01:15:28.907Z,3.64
2018-04-07T01:16:27.233Z,3.67
2018-04-07T01:17:29.418Z,3.50
2018-04-07T01:18:30.443Z,3.64
2018-04-07T01:19:28.783Z,3.61
2018-04-07T01:20:28.023Z,3.70
2018-04-07T01:21:31.912Z,3.53
2018-04-07T01:22:28.394Z,3.46
2018-04-07T01:23:30.416Z,3.42
2018-04-07T01:24:30.418Z,3.49
2018-04-07T01:25:32.411Z,3.47
2018-04-07T01:26:29.866Z,3.34
2018-04-07T01:27:30.283Z,3.42
2018-04-07T01:28:30.946Z,3.31
2018-04-07T01:29:32.911Z,3.36
2018-04-07T01:30:34.442Z,3.52
2018-04-07T01:31:31.411Z,3.49
2018-04-07T01:32:31.926Z,3.52
2018-04-07T01:33:31.961Z,3.49
2018-04-07T01:34:31.907Z,3.46
2018-04-07T01:35:32.912Z,3.58
2018-04-07T01:36:37.419Z,3.64
2018-04-07T01:37:34.436Z,3.68
2018-04-07T01:38:31.766Z,3.65
2018-04-07T01:39:32.910Z,3.67
2018-04-07T01:40:32.908Z,3.62
2018-04-07T01:41:31.238Z,3.62
2018-04-07T01:42:33.411Z,3.57
2018-04-07T01:43:35.411Z,3.57
2018-04-07T01:44:33.413Z,3.57
2018-04-07T01:45:32.050Z,3.52
2018-04-07T01:46:33.915Z,3.57
2018-04-07T01:47:35.444Z,3.43
2018-04-07T01:48:36.448Z,3.46
2018-04-07T01:49:32.781Z,3.24
2018-04-07T01:50:34.036Z,3.25
2018-04-07T01:51:33.234Z,3.27
2018-04-07T01:52:33.492Z,3.24
2018-04-07T01:53:36.414Z,3.21
2018-04-07T01:54:34.930Z,3.30
2018-04-07T01:55:35.916Z,3.31
2018-04-07T01:56:35.298Z,3.15
2018-04-07T01:57:36.408Z,3.33
2018-04-07T01:58:34.606Z,3.30
2018-04-07T01:59:34.869Z,3.40
2018-04-07T02:00:35.023Z,3.33
2018-04-07T02:01:51.880Z,3.31
2018-04-07T02:02:38.940Z,3.39
2018-04-07T02:03:37.413Z,3.53
2018-04-07T02:04:37.419Z,3.36
2018-04-07T02:05:35.881Z,3.46
2018-04-07T02:06:36.096Z,3.30
2018-04-07T02:07:38.387Z,3.31
2018-04-07T02:08:39.453Z,3.36
2018-04-07T02:09:40.408Z,3.28
2018-04-07T02:10:38.414Z,3.18
2018-04-07T02:11:38.428Z,3.13
2018-04-07T02:12:47.931Z,3.13
2018-04-07T02:13:39.929Z,3.15
2018-04-07T02:14:38.909Z,3.20
2018-04-07T02:15:39.437Z,3.16
2018-04-07T02:16:39.412Z,3.06
2018-04-07T02:17:40.433Z,3.10
2018-04-07T02:18:38.927Z,3.07
2018-04-07T02:19:38.083Z,3.03
2018-04-07T02:20:39.916Z,3.06
2018-04-07T02:21:39.518Z,3.06
2018-04-07T02:22:40.414Z,3.09
2018-04-07T02:23:41.901Z,3.21
2018-04-07T02:24:42.881Z,3.09
2018-04-07T02:25:40.213Z,3.16
2018-04-07T02:26:39.421Z,3.16
2018-04-07T02:27:39.626Z,3.07
2018-04-07T02:28:41.416Z,3.06
2018-04-07T02:29:40.001Z,3.05
2018-04-07T02:30:55.924Z,3.05
2018-04-07T02:31:42.875Z,3.10
2018-04-07T02:32:42.427Z,3.18
2018-04-07T02:33:42.462Z,3.16
2018-04-07T02:34:40.942Z,3.20
2018-04-07T02:35:41.145Z,3.15
2018-04-07T02:36:42.933Z,3.09
2018-04-07T02:37:41.534Z,2.92
2018-04-07T02:38:43.467Z,2.89
2018-04-07T02:39:41.855Z,2.94
2018-04-07T02:40:41.999Z,2.95
2018-04-07T02:41:43.921Z,2.97
2018-04-07T02:42:43.234Z,2.95
2018-04-07T02:43:44.429Z,2.92
2018-04-07T02:44:42.808Z,2.77
2018-04-07T02:45:42.966Z,2.85
2018-04-07T02:46:43.118Z,2.81
2018-04-07T02:47:44.335Z,2.79
2018-04-07T02:48:44.558Z,2.77
2018-04-07T02:49:44.779Z,2.61
2018-04-07T02:50:44.210Z,2.74
2018-04-07T02:51:45.932Z,2.64
2018-04-07T02:52:47.933Z,2.59
2018-04-07T02:53:46.917Z,2.63
2018-04-07T02:54:46.431Z,2.71
2018-04-07T02:55:45.411Z,2.55
2018-04-07T02:56:47.373Z,2.64
2018-04-07T02:57:53.002Z,2.52
2018-04-07T02:58:47.908Z,2.59
2018-04-07T02:59:45.391Z,2.61
2018-04-07T03:00:47.462Z,2.56
2018-04-07T03:01:47.426Z,2.49
2018-04-07T03:02:45.817Z,2.51
2018-04-07T03:03:45.971Z,2.49
2018-04-07T03:04:47.925Z,2.56
2018-04-07T03:05:46.371Z,2.53
2018-04-07T03:06:48.455Z,2.56
2018-04-07T03:07:50.459Z,2.63
2018-04-07T03:09:02.427Z,2.64
2018-04-07T03:09:47.114Z,2.53
2018-04-07T03:10:49.467Z,2.61
2018-04-07T03:11:49.449Z,2.56
2018-04-07T03:12:49.408Z,2.64
2018-04-07T03:13:48.778Z,2.52
2018-04-07T03:14:47.876Z,2.53
2018-04-07T03:15:49.081Z,2.35
2018-04-07T03:16:50.910Z,2.34
2018-04-07T03:17:51.393Z,2.33
2018-04-07T03:18:52.455Z,2.23
2018-04-07T03:19:50.409Z,2.35
2018-04-07T03:20:49.038Z,2.33
2018-04-07T03:21:50.217Z,2.28
2018-04-07T03:22:49.426Z,2.30
2018-04-07T03:23:53.446Z,2.34
2018-04-07T03:24:49.766Z,2.33
2018-04-07T03:25:50.025Z,2.37
2018-04-07T03:26:53.907Z,2.45
2018-04-07T03:27:50.248Z,2.41
2018-04-07T03:28:52.413Z,2.26
2018-04-07T03:29:52.417Z,2.23
2018-04-07T03:30:50.791Z,2.17
2018-04-07T03:31:53.446Z,2.19
2018-04-07T03:32:54.908Z,2.09
2018-04-07T03:33:52.908Z,2.04
2018-04-07T03:34:52.912Z,2.23
2018-04-07T03:35:54.408Z,2.17
2018-04-07T03:36:55.405Z,2.22
2018-04-07T03:37:53.425Z,2.19
2018-04-07T03:38:54.860Z,2.19
2018-04-07T03:39:58.950Z,2.02
2018-04-07T03:40:52.420Z,1.94
2018-04-07T03:41:54.410Z,2.04
2018-04-07T03:42:52.766Z,2.12
2018-04-07T03:43:55.915Z,2.04
2018-04-07T03:44:54.149Z,2.02
2018-04-07T03:45:53.280Z,2.04
2018-04-07T03:46:54.906Z,2.04
2018-04-07T03:47:53.513Z,1.99
2018-04-07T03:48:55.427Z,1.89
2018-04-07T03:49:55.451Z,1.94
2018-04-07T03:50:54.043Z,1.91
2018-04-07T03:52:05.912Z,1.82
2018-04-07T03:52:54.373Z,1.87
2018-04-07T03:53:56.420Z,1.98
2018-04-07T03:55:02.479Z,1.93
2018-04-07T03:55:56.444Z,1.97
2018-04-07T03:57:51.611Z,1.89
2018-04-07T03:58:50.674Z,1.89
2018-04-07T03:59:47.197Z,1.83
2018-04-07T04:00:55.845Z,1.82
2018-04-07T04:01:49.133Z,1.83
2018-04-07T04:02:48.728Z,1.78
2018-04-07T04:03:49.671Z,1.78
2018-04-07T04:04:49.144Z,1.83
2018-04-07T04:05:48.279Z,1.83
2018-04-07T04:06:51.688Z,1.85
2018-04-07T04:08:00.161Z,1.80
2018-04-07T04:08:52.663Z,1.91
2018-04-07T04:09:50.662Z,1.89
2018-04-07T04:10:49.643Z,1.83
2018-04-07T04:11:52.670Z,1.73
2018-04-07T04:12:49.241Z,1.65
2018-04-07T04:13:51.165Z,1.64
2018-04-07T04:14:51.168Z,1.72
2018-04-07T04:15:49.768Z,1.80
2018-04-07T04:16:53.123Z,1.78
2018-04-07T04:17:50.959Z,1.62
2018-04-07T04:18:56.196Z,1.61
2018-04-07T04:19:50.649Z,1.76
2018-04-07T04:20:52.166Z,1.62
2018-04-07T04:21:52.688Z,1.65
2018-04-07T04:22:51.915Z,1.65
2018-04-07T04:23:58.670Z,1.75
2018-04-07T04:24:54.665Z,1.82
2018-04-07T04:26:07.166Z,1.87
2018-04-07T04:26:56.387Z,1.75
2018-04-07T04:27:53.163Z,1.75
2018-04-07T04:28:51.663Z,1.83
2018-04-07T04:29:56.647Z,1.73
2018-04-07T04:30:53.678Z,1.73
2018-04-07T04:31:53.670Z,1.64
2018-04-07T04:32:54.224Z,1.60
2018-04-07T04:33:53.419Z,1.62
2018-04-07T04:34:54.166Z,1.64
2018-04-07T04:35:53.778Z,1.50
2018-04-07T04:36:56.667Z,1.50
2018-04-07T04:37:54.006Z,1.42
2018-04-07T04:38:53.105Z,1.26
2018-04-07T04:39:54.351Z,1.32
2018-04-07T04:40:55.197Z,1.32
2018-04-07T04:41:55.176Z,1.28
2018-04-07T04:42:53.743Z,1.32
2018-04-07T04:43:53.965Z,1.29
2018-04-07T04:44:56.665Z,1.29
2018-04-07T04:45:54.297Z,1.28
2018-04-07T04:46:58.178Z,1.26
2018-04-07T04:48:10.221Z,1.26
2018-04-07T04:49:01.709Z,1.34
2018-04-07T04:49:56.666Z,1.36
2018-04-07T04:50:56.128Z,1.36
2018-04-07T04:51:57.230Z,1.57
2018-04-07T04:53:11.168Z,1.61
2018-04-07T04:54:01.160Z,1.55
2018-04-07T04:54:57.637Z,1.61
2018-04-07T04:55:56.243Z,1.62
2018-04-07T04:56:56.459Z,1.61
2018-04-07T04:58:00.208Z,1.60
2018-04-07T04:58:59.628Z,1.60
2018-04-07T04:59:58.672Z,1.64
2018-04-07T05:01:01.662Z,1.68
2018-04-07T05:01:59.182Z,1.71
2018-04-07T05:03:01.165Z,1.82
2018-04-07T05:03:57.542Z,1.83
2018-04-07T05:04:57.718Z,1.79
2018-04-07T05:06:00.719Z,1.80
2018-04-07T05:06:59.690Z,1.82
2018-04-07T05:07:58.201Z,1.83
2018-04-07T05:09:02.161Z,1.85
2018-04-07T05:09:59.664Z,1.80
2018-04-07T05:11:00.206Z,1.83
2018-04-07T05:12:02.061Z,1.89
2018-04-07T05:12:59.056Z,1.85
2018-04-07T05:14:00.716Z,1.93
2018-04-07T05:15:07.192Z,1.91
2018-04-07T05:16:01.159Z,1.93
2018-04-07T05:17:02.664Z,2.01
2018-04-07T05:17:59.861Z,2.01
2018-04-07T05:19:00.651Z,1.97
2018-04-07T05:20:03.164Z,2.09
2018-04-07T05:21:04.175Z,2.16
2018-04-07T05:22:03.166Z,2.27
2018-04-07T05:23:03.182Z,2.37
2018-04-07T05:24:03.716Z,2.81
2018-04-07T05:25:02.673Z,3.36
2018-04-07T05:26:02.699Z,3.89
2018-04-07T05:27:01.348Z,4.42
2018-04-07T05:28:04.175Z,4.69
2018-04-07T05:29:01.626Z,5.20
2018-04-07T05:30:01.858Z,5.57
2018-04-07T05:31:04.674Z,5.71
2018-04-07T05:32:03.664Z,5.64
2018-04-07T05:33:04.213Z,5.67
2018-04-07T05:34:05.169Z,5.67
2018-04-07T05:35:02.621Z,6.01
2018-04-07T05:36:04.672Z,6.26
2018-04-07T05:37:03.001Z,6.63
2018-04-07T05:38:05.160Z,6.94
2018-04-07T05:39:05.174Z,7.19
2018-04-07T05:40:03.536Z,7.19
2018-04-07T05:41:03.651Z,7.47
2018-04-07T05:42:05.683Z,7.38
2018-04-07T05:43:05.261Z,7.26
2018-04-07T05:44:04.096Z,7.59
2018-04-07T05:45:04.304Z,7.89
2018-04-07T05:46:04.512Z,8.02
2018-04-07T05:47:06.673Z,8.35
2018-04-07T05:48:08.662Z,8.36
2018-04-07T05:49:08.673Z,8.14
2018-04-07T05:50:05.264Z,8.40
2018-04-07T05:51:05.467Z,8.37
2018-04-07T05:52:08.674Z,8.47
2018-04-07T05:53:05.890Z,8.42
2018-04-07T05:54:07.090Z,8.36
2018-04-07T05:55:06.308Z,8.25
2018-04-07T05:56:06.520Z,8.44
2018-04-07T05:57:06.729Z,8.44
2018-04-07T05:58:08.674Z,8.78
2018-04-07T05:59:07.124Z,8.97
2018-04-07T06:00:07.339Z,9.10
2018-04-07T06:01:07.558Z,9.21
2018-04-07T06:02:07.760Z,8.86
2018-04-07T06:03:09.668Z,9.23
2018-04-07T06:04:08.124Z,9.86
2018-04-07T06:05:08.372Z,10.30
2018-04-07T06:06:08.543Z,10.34
2018-04-07T06:07:08.750Z,10.53
2018-04-07T06:08:08.956Z,10.52
2018-04-07T06:09:09.178Z,10.66
2018-04-07T06:10:11.166Z,11.11
2018-04-07T06:11:09.629Z,11.16
2018-04-07T06:12:09.843Z,10.94
2018-04-07T06:13:10.058Z,11.10
2018-04-07T06:14:10.272Z,10.88
2018-04-07T06:15:10.488Z,10.65
2018-04-07T06:16:10.698Z,10.77
2018-04-07T06:17:10.916Z,10.42
2018-04-07T06:18:11.135Z,10.24
2018-04-07T06:19:11.367Z,10.06
2018-04-07T06:20:11.552Z,10.14
2018-04-07T06:21:13.664Z,10.37
2018-04-07T06:22:11.991Z,10.46
2018-04-07T06:23:12.206Z,10.84
2018-04-07T06:24:12.409Z,10.98
2018-04-07T06:25:12.625Z,10.95
2018-04-07T06:26:12.839Z,11.19
2018-04-07T06:27:13.057Z,11.52
2018-04-07T06:28:13.283Z,12.16
2018-04-07T06:29:13.502Z,12.71
2018-04-07T06:30:14.734Z,13.03
2018-04-07T06:31:13.961Z,13.41
2018-04-07T06:32:14.185Z,13.62
2018-04-07T06:33:14.387Z,12.93
2018-04-07T06:34:14.612Z,12.67
2018-04-07T06:35:14.830Z,13.20
2018-04-07T06:36:15.040Z,13.20
2018-04-07T06:37:15.246Z,13.76
2018-04-07T06:38:15.455Z,14.13
2018-04-07T06:39:15.681Z,14.25
2018-04-07T06:40:15.896Z,14.19
2018-04-07T06:41:16.112Z,14.72
2018-04-07T06:42:16.340Z,15.12
2018-04-07T06:43:20.169Z,15.36
2018-04-07T06:44:18.671Z,15.20
2018-04-07T06:45:16.882Z,14.50
2018-04-07T06:46:17.103Z,15.15
2018-04-07T06:47:17.363Z,14.98
2018-04-07T06:48:20.187Z,15.31
2018-04-07T06:49:17.752Z,15.85
2018-04-07T06:50:18.002Z,15.64
2018-04-07T06:51:18.178Z,14.93
2018-04-07T06:52:18.419Z,15.09
2018-04-07T06:53:18.611Z,14.95
2018-04-07T06:54:18.821Z,14.27
2018-04-07T06:55:19.034Z,13.96
2018-04-07T06:56:19.254Z,14.02
2018-04-07T06:57:19.473Z,14.47
2018-04-07T06:58:19.703Z,14.17
2018-04-07T06:59:19.912Z,14.75
2018-04-07T07:00:21.670Z,14.99
2018-04-07T07:01:22.164Z,14.98
2018-04-07T07:02:20.377Z,14.27
2018-04-07T07:03:20.600Z,14.68
2018-04-07T07:04:20.821Z,14.72
2018-04-07T07:05:21.033Z,14.86
2018-04-07T07:06:23.168Z,15.13
2018-04-07T07:07:21.380Z,15.60
2018-04-07T07:08:21.611Z,14.75
2018-04-07T07:09:21.827Z,14.14
2018-04-07T07:10:22.040Z,14.60
2018-04-07T07:11:22.263Z,15.27
2018-04-07T07:12:22.480Z,15.68
2018-04-07T07:13:22.699Z,16.03
2018-04-07T07:14:22.919Z,16.22
2018-04-07T07:15:23.128Z,17.18
2018-04-07T07:16:23.353Z,17.62
2018-04-07T07:17:25.196Z,17.84
2018-04-07T07:18:24.140Z,18.04
2018-04-07T07:19:26.673Z,18.55
2018-04-07T07:20:26.676Z,18.47
2018-04-07T07:21:24.256Z,18.54
2018-04-07T07:22:26.172Z,18.31
2018-04-07T07:23:24.661Z,17.40
2018-04-07T07:24:28.248Z,17.74
2018-04-07T07:25:28.564Z,17.70
2018-04-07T07:26:27.139Z,17.63
2018-04-07T07:27:30.524Z,17.91
2018-04-07T07:28:26.132Z,18.03
2018-04-07T07:29:29.784Z,18.76
2018-04-07T07:30:27.277Z,18.79
2018-04-07T07:31:27.989Z,19.33
2018-04-07T07:32:30.659Z,19.57
2018-04-07T07:33:28.179Z,20.09
2018-04-07T07:34:26.786Z,19.53
2018-04-07T07:35:27.012Z,20.06
2018-04-07T07:36:43.176Z,19.46
2018-04-07T07:37:29.176Z,19.60
2018-04-07T07:38:31.177Z,20.05
2018-04-07T07:39:27.759Z,20.74
2018-04-07T07:40:28.002Z,21.16
2018-04-07T07:41:29.680Z,21.35
2018-04-07T07:42:30.171Z,21.69
2018-04-07T07:43:28.517Z,21.64
2018-04-07T07:44:32.677Z,22.22
2018-04-07T07:45:36.671Z,22.94
2018-04-07T07:46:30.147Z,23.14
2018-04-07T07:47:35.412Z,22.77
2018-04-07T07:48:29.518Z,23.07
2018-04-07T07:49:29.730Z,23.38
2018-04-07T07:50:29.988Z,23.14
2018-04-07T07:51:31.671Z,23.17
2018-04-07T07:52:30.322Z,23.64
2018-04-07T07:53:30.551Z,23.55
2018-04-07T07:54:33.625Z,24.12
2018-04-07T07:55:35.146Z,23.77
2018-04-07T07:56:32.671Z,24.16
2018-04-07T07:57:31.272Z,23.70
2018-04-07T07:58:33.227Z,23.46
2018-04-07T07:59:36.629Z,23.55
2018-04-07T08:00:31.876Z,24.05
2018-04-07T08:01:36.999Z,24.63
2018-04-07T08:02:33.310Z,24.35
2018-04-07T08:03:35.204Z,24.13
2018-04-07T08:04:34.179Z,23.14
2018-04-07T08:05:36.671Z,23.15
2018-04-07T08:06:32.909Z,23.77
2018-04-07T08:07:34.675Z,23.50
2018-04-07T08:08:37.139Z,23.57
2018-04-07T08:09:35.223Z,24.08
2018-04-07T08:10:35.178Z,22.69
2018-04-07T08:11:33.772Z,22.59
2018-04-07T08:12:34.012Z,23.32
2018-04-07T08:13:37.132Z,23.58
2018-04-07T08:14:36.247Z,24.22
2018-04-07T08:15:34.595Z,24.50
2018-04-07T08:16:42.142Z,24.32
2018-04-07T08:17:34.868Z,24.42
2018-04-07T08:18:36.682Z,24.39
2018-04-07T08:19:35.344Z,24.13
2018-04-07T08:20:37.237Z,24.32
2018-04-07T08:21:35.730Z,24.19
2018-04-07T08:22:40.112Z,23.89
2018-04-07T08:23:37.703Z,24.02
2018-04-07T08:24:38.223Z,24.87
2018-04-07T08:25:40.175Z,24.13
2018-04-07T08:26:36.775Z,24.13
2018-04-07T08:27:38.705Z,24.01
2018-04-07T08:28:41.176Z,24.90
2018-04-07T08:29:39.752Z,25.49
2018-04-07T08:30:38.687Z,26.11
2018-04-07T08:31:37.803Z,26.49
2018-04-07T08:32:41.132Z,26.98
2018-04-07T08:33:42.186Z,27.11
2018-04-07T08:34:38.416Z,26.49
2018-04-07T08:35:40.177Z,25.82
2018-04-07T08:36:39.872Z,25.56
2018-04-07T08:37:41.664Z,25.91
2018-04-07T08:38:42.075Z,26.05
2018-04-07T08:39:43.174Z,26.27
2018-04-07T08:40:40.030Z,26.67
2018-04-07T08:41:40.634Z,26.89
2018-04-07T08:42:41.675Z,26.83
2018-04-07T08:43:43.675Z,26.40
2018-04-07T08:44:40.221Z,26.20
2018-04-07T08:45:40.405Z,25.94
2018-04-07T08:46:48.176Z,26.46
2018-04-07T08:47:42.716Z,26.39
2018-04-07T08:48:40.960Z,26.47
2018-04-07T08:49:41.053Z,25.98
2018-04-07T08:50:48.209Z,25.24
2018-04-07T08:51:50.128Z,24.54
2018-04-07T08:52:43.681Z,25.24
2018-04-07T08:53:43.676Z,25.28
2018-04-07T08:54:44.648Z,25.74
2018-04-07T08:55:44.192Z,26.43
2018-04-07T08:56:42.529Z,27.04
2018-04-07T08:57:49.733Z,27.51
2018-04-07T08:58:42.886Z,27.61
2018-04-07T08:59:44.679Z,27.88
2018-04-07T09:00:47.202Z,27.80
2018-04-07T09:01:46.173Z,26.15
2018-04-07T09:03:06.191Z,24.83
2018-04-07T09:03:45.690Z,22.72
2018-04-07T09:04:44.089Z,22.99
2018-04-07T09:05:46.640Z,23.70
2018-04-07T09:06:44.385Z,22.92
2018-04-07T09:07:46.182Z,23.47
2018-04-07T09:08:48.675Z,24.05
2018-04-07T09:09:47.653Z,24.87
2018-04-07T09:10:46.675Z,25.54
2018-04-07T09:11:47.262Z,26.17
2018-04-07T09:12:45.491Z,26.12
2018-04-07T09:13:45.737Z,26.67
2018-04-07T09:14:46.909Z,26.98
2018-04-07T09:15:47.686Z,27.23
2018-04-07T09:16:54.177Z,27.64
2018-04-07T09:17:55.211Z,27.82
2018-04-07T09:18:48.669Z,28.32
2018-04-07T09:19:49.738Z,28.58
2018-04-07T09:20:49.006Z,28.91
2018-04-07T09:21:47.319Z,28.56
2018-04-07T09:22:47.436Z,28.54
2018-04-07T09:23:47.701Z,28.44
2018-04-07T09:24:48.647Z,28.73
2018-04-07T09:25:48.179Z,28.90
2018-04-07T09:26:50.179Z,28.72
2018-04-07T09:27:50.213Z,28.85
2018-04-07T09:28:50.194Z,28.26
2018-04-07T09:29:51.687Z,27.57
2018-04-07T09:30:49.164Z,28.11
2018-04-07T09:31:53.195Z,28.36
2018-04-07T09:32:51.184Z,28.01
2018-04-07T09:33:53.683Z,28.33
2018-04-07T09:34:51.686Z,27.20
2018-04-07T09:35:51.717Z,24.42
2018-04-07T09:36:52.187Z,23.09
2018-04-07T09:37:50.529Z,23.49
2018-04-07T09:38:50.754Z,24.41
2018-04-07T09:39:54.676Z,25.22
2018-04-07T09:40:53.178Z,25.64
2018-04-07T09:41:53.190Z,25.43
2018-04-07T09:42:52.177Z,25.37
2018-04-07T09:43:57.048Z,25.54
2018-04-07T09:44:53.268Z,26.39
2018-04-07T09:45:54.182Z,27.11
2018-04-07T09:46:55.839Z,27.54
2018-04-07T09:47:54.226Z,27.88
2018-04-07T09:49:08.676Z,28.77
2018-04-07T09:49:53.049Z,29.25
2018-04-07T09:50:53.355Z,29.47
2018-04-07T09:51:55.175Z,29.63
2018-04-07T09:52:55.180Z,29.72
2018-04-07T09:53:53.899Z,29.40
2018-04-07T09:54:58.629Z,29.47
2018-04-07T09:55:55.444Z,28.31
2018-04-07T09:56:54.646Z,28.47
2018-04-07T09:58:16.824Z,29.22
2018-04-07T09:59:02.697Z,30.03
2018-04-07T09:59:56.685Z,30.09
2018-04-07T10:01:23.187Z,30.68
2018-04-07T10:01:55.520Z,30.65
2018-04-07T10:02:57.642Z,31.01
2018-04-07T10:04:08.636Z,30.91
2018-04-07T10:04:56.116Z,30.90
2018-04-07T10:05:58.323Z,30.69
2018-04-07T10:06:57.643Z,30.61
2018-04-07T10:07:59.636Z,29.28
2018-04-07T10:08:57.004Z,29.96
2018-04-07T10:10:04.197Z,28.80
2018-04-07T10:10:59.181Z,29.62
2018-04-07T10:11:59.211Z,29.16
2018-04-07T10:12:59.714Z,28.43
2018-04-07T10:14:01.716Z,28.60
2018-04-07T10:14:59.256Z,28.80
2018-04-07T10:15:58.385Z,28.91
2018-04-07T10:17:00.175Z,29.23
2018-04-07T10:18:00.674Z,29.97
2018-04-07T10:18:59.034Z,29.71
2018-04-07T10:20:01.173Z,26.73
2018-04-07T10:20:59.397Z,26.36
2018-04-07T10:22:01.177Z,27.19
2018-04-07T10:23:02.674Z,27.17
2018-04-07T10:24:01.067Z,26.28
2018-04-07T10:25:00.220Z,26.84
2018-04-07T10:26:01.444Z,25.84
2018-04-07T10:27:02.200Z,26.12
2018-04-07T10:28:02.705Z,25.20
2018-04-07T10:29:02.689Z,24.92
2018-04-07T10:30:09.626Z,24.94
2018-04-07T10:31:02.130Z,24.07
2018-04-07T10:32:03.191Z,24.79
2018-04-07T10:33:03.203Z,25.13
2018-04-07T10:34:01.823Z,25.44
2018-04-07T10:35:03.676Z,25.35
2018-04-07T10:36:02.291Z,26.44
2018-04-07T10:37:04.182Z,26.59
2018-04-07T10:38:03.698Z,26.83
2018-04-07T10:39:05.662Z,27.66
2018-04-07T10:40:06.712Z,28.26
2018-04-07T10:41:04.709Z,28.75
2018-04-07T10:42:03.419Z,27.13
2018-04-07T10:43:03.705Z,28.36
2018-04-07T10:44:07.600Z,27.39
2018-04-07T10:45:07.673Z,27.66
2018-04-07T10:46:05.141Z,28.01
2018-04-07T10:47:11.186Z,28.63
2018-04-07T10:48:04.591Z,29.08
2018-04-07T10:49:07.718Z,29.66
2018-04-07T10:50:10.954Z,29.34
2018-04-07T10:51:06.150Z,28.62
2018-04-07T10:52:09.173Z,28.59
2018-04-07T10:53:07.174Z,28.93
2018-04-07T10:54:05.906Z,28.95
2018-04-07T10:55:07.711Z,29.60
2018-04-07T10:56:08.228Z,29.52
2018-04-07T10:57:06.553Z,30.07
2018-04-07T10:58:09.634Z,30.40
2018-04-07T10:59:08.681Z,30.09
2018-04-07T11:00:08.706Z,30.76
2018-04-07T11:01:23.186Z,29.97
2018-04-07T11:02:07.518Z,28.81
2018-04-07T11:03:07.742Z,29.04
2018-04-07T11:04:09.690Z,28.87
2018-04-07T11:05:10.673Z,29.18
2018-04-07T11:06:12.189Z,28.73
2018-04-07T11:07:08.559Z,27.69
2018-04-07T11:08:10.684Z,28.14
2018-04-07T11:09:10.044Z,28.62
2018-04-07T11:10:11.177Z,29.10
2018-04-07T11:11:11.163Z,29.60
2018-04-07T11:12:13.690Z,30.12
2018-04-07T11:13:12.699Z,29.78
2018-04-07T11:14:11.683Z,29.90
2018-04-07T11:15:13.134Z,30.14
2018-04-07T11:16:10.637Z,29.70
2018-04-07T11:17:11.867Z,30.30
2018-04-07T11:18:12.697Z,30.87
2018-04-07T11:19:11.315Z,31.43
2018-04-07T11:20:12.554Z,31.62
2018-04-07T11:21:11.823Z,32.35
2018-04-07T11:22:13.692Z,32.64
2018-04-07T11:23:15.675Z,32.00
2018-04-07T11:24:12.409Z,31.84
2018-04-07T11:25:15.234Z,31.46
2018-04-07T11:26:20.634Z,31.43
2018-04-07T11:27:14.657Z,31.84
2018-04-07T11:28:28.696Z,31.43
2018-04-07T11:29:15.177Z,31.62
2018-04-07T11:30:17.188Z,32.00
2018-04-07T11:31:34.692Z,32.25
2018-04-07T11:32:17.686Z,32.69
2018-04-07T11:33:15.678Z,32.51
2018-04-07T11:34:16.191Z,31.65
2018-04-07T11:35:14.430Z,31.88
2018-04-07T11:36:19.009Z,31.30
2018-04-07T11:37:14.877Z,31.79
2018-04-07T11:38:16.722Z,32.29
2018-04-07T11:39:19.173Z,32.29
2018-04-07T11:40:15.528Z,31.57
2018-04-07T11:41:15.766Z,31.62
2018-04-07T11:42:17.678Z,31.24
2018-04-07T11:43:18.722Z,31.38
2018-04-07T11:44:16.328Z,31.62
2018-04-07T11:45:19.189Z,31.58
2018-04-07T11:46:28.686Z,29.94
2018-04-07T11:47:18.695Z,30.31
2018-04-07T11:48:17.195Z,30.76
2018-04-07T11:49:20.132Z,31.15
2018-04-07T11:50:21.188Z,31.50
2018-04-07T11:51:17.798Z,32.22
2018-04-07T11:52:19.035Z,31.12
2018-04-07T11:53:25.175Z,30.05
2018-04-07T11:54:19.434Z,29.68
2018-04-07T11:55:20.674Z,29.50
2018-04-07T11:56:20.688Z,29.37
2018-04-07T11:57:22.635Z,29.92
2018-04-07T11:58:20.690Z,28.51
2018-04-07T11:59:21.224Z,29.41
2018-04-07T12:00:19.811Z,29.75
2018-04-07T12:01:21.680Z,28.93
2018-04-07T12:02:23.740Z,29.78
2018-04-07T12:03:20.400Z,28.60
2018-04-07T12:04:23.178Z,27.39
2018-04-07T12:05:20.802Z,26.52
2018-04-07T12:06:22.680Z,27.04
2018-04-07T12:07:22.673Z,27.67
2018-04-07T12:08:23.127Z,28.16
2018-04-07T12:09:22.639Z,28.84
2018-04-07T12:10:21.804Z,29.04
2018-04-07T12:11:21.998Z,28.75
2018-04-07T12:12:22.223Z,29.38
2018-04-07T12:13:22.478Z,29.97
2018-04-07T12:14:25.211Z,29.74
2018-04-07T12:15:22.802Z,29.97
2018-04-07T12:16:24.669Z,30.62
2018-04-07T12:17:23.136Z,30.57
2018-04-07T12:18:24.393Z,29.92
2018-04-07T12:19:23.504Z,28.75
2018-04-07T12:20:24.674Z,28.13
2018-04-07T12:21:39.711Z,27.20
2018-04-07T12:22:25.671Z,26.02
2018-04-07T12:23:25.675Z,26.15
2018-04-07T12:24:24.411Z,26.20
2018-04-07T12:25:26.221Z,26.91
2018-04-07T12:26:47.719Z,27.17
2018-04-07T12:27:28.680Z,28.09
2018-04-07T12:28:25.152Z,28.84
2018-04-07T12:29:27.176Z,28.66
2018-04-07T12:30:27.196Z,28.40
2018-04-07T12:31:48.169Z,29.35
2018-04-07T12:32:27.711Z,29.04
2018-04-07T12:33:28.698Z,29.01
2018-04-07T12:34:29.686Z,29.22
2018-04-07T12:35:26.472Z,28.80
2018-04-07T12:36:26.660Z,28.90
2018-04-07T12:37:30.126Z,28.43
2018-04-07T12:38:28.670Z,28.38
2018-04-07T12:39:33.773Z,27.67
2018-04-07T12:40:29.173Z,28.32
2018-04-07T12:41:27.658Z,28.33
2018-04-07T12:42:27.868Z,28.19
2018-04-07T12:43:30.723Z,28.16
2018-04-07T12:44:28.253Z,28.35
2018-04-07T12:45:28.390Z,28.84
2018-04-07T12:46:29.624Z,29.38
2018-04-07T12:47:31.673Z,29.87
2018-04-07T12:48:30.670Z,29.37
2018-04-07T12:49:45.174Z,28.31
2018-04-07T12:50:30.230Z,28.17
2018-04-07T12:51:29.729Z,28.58
2018-04-07T12:52:33.806Z,28.29
2018-04-07T12:53:45.668Z,28.29
2018-04-07T12:54:30.250Z,28.65
2018-04-07T12:55:32.169Z,28.95
2018-04-07T12:56:45.172Z,29.03
2018-04-07T12:57:31.827Z,29.33
2018-04-07T12:58:31.052Z,29.50
2018-04-07T12:59:37.167Z,29.45
2018-04-07T13:00:33.180Z,30.11
2018-04-07T13:01:43.223Z,30.31
2018-04-07T13:02:39.671Z,30.12
2018-04-07T13:03:32.055Z,29.65
2018-04-07T13:04:32.181Z,29.34
2018-04-07T13:05:40.172Z,29.53
2018-04-07T13:06:32.612Z,29.47
2018-04-07T13:07:36.672Z,29.22